CheckWX is a tool to help pilots better visualize weather data.  It is not intended as a substitute for an official pre-flight weather briefing.

12:23:48 UTC

VIAR TAF
Sri Guru Ram Dass Jee International Airport
Amritsar, India
TAF VIAR 221100Z 2212/2221 32008KT 5000 HZ FEW100 BECMG 2218/2220 34005KT 3000 BR

Mar-22@
12:00 UTC

Mar-22 @ 12:00 UTC

Mar-22@
18:00 UTC

Mar-22 @ 18:00 UTC

TAF VIAR 221100Z 2212/2221 32008KT 5000 HZ FEW100
Wind
  • 320° at 8 KTS
Conditions
Haze
Cloud Levels
  • Few at 10,000' AGL

Mar-22@
18:00 UTC

Mar-22 @ 18:00 UTC

Mar-22@
21:00 UTC

Mar-22 @ 21:00 UTC

BECMG 2218/2220 34005KT 3000 BR

Becoming

Becoming Conditions expected by Fri, Mar 22, 2019 @ 20:00 UTC

Wind
  • 340° at 5 KTS
Conditions
Mist
Cloud Levels
  • Few at 10,000' AGL